createdAt,value
2018-10-03T00:05:02.011Z,8.90
2018-10-03T00:10:06.712Z,9.93
2018-10-03T00:15:10.373Z,9.60
2018-10-03T00:20:15.158Z,10.87
2018-10-03T00:25:19.303Z,15.13
2018-10-03T00:30:23.108Z,7.67
2018-10-03T00:35:27.314Z,14.17
2018-10-03T00:40:31.127Z,11.30
2018-10-03T00:45:34.942Z,15.17
2018-10-03T00:50:39.378Z,13.00
2018-10-03T00:55:43.320Z,14.87
2018-10-03T01:00:47.312Z,14.33
2018-10-03T01:05:51.107Z,12.40
2018-10-03T01:10:54.843Z,12.50
2018-10-03T01:15:59.172Z,10.47
2018-10-03T01:21:02.980Z,11.80
2018-10-03T01:26:07.168Z,10.83
2018-10-03T01:31:10.871Z,12.03
2018-10-03T01:36:14.767Z,12.33
2018-10-03T01:41:18.643Z,13.40
2018-10-03T01:46:22.400Z,11.93
2018-10-03T01:51:26.186Z,12.30
2018-10-03T01:56:30.201Z,12.60
2018-10-03T02:01:34.052Z,15.13
2018-10-03T02:06:38.527Z,12.03
2018-10-03T02:11:42.963Z,15.43
2018-10-03T02:16:47.076Z,18.87
2018-10-03T02:21:55.357Z,14.43
2018-10-03T02:26:59.455Z,16.70
2018-10-03T02:32:03.359Z,15.17
2018-10-03T02:37:28.901Z,14.03
2018-10-03T02:42:32.728Z,15.50
2018-10-03T02:47:36.739Z,15.37
2018-10-03T02:52:40.364Z,17.47
2018-10-03T02:57:45.115Z,18.83
2018-10-03T03:02:49.211Z,14.57
2018-10-03T03:08:00.211Z,16.30
2018-10-03T03:13:03.981Z,15.37
2018-10-03T03:18:08.062Z,14.80
2018-10-03T03:23:11.776Z,17.27
2018-10-03T03:28:15.603Z,21.50
2018-10-03T03:33:19.727Z,19.83
2018-10-03T03:38:43.509Z,15.43
2018-10-03T03:43:47.431Z,14.73
2018-10-03T03:49:02.023Z,18.03
2018-10-03T03:54:05.767Z,16.87
2018-10-03T03:59:12.884Z,20.93
2018-10-03T04:04:16.951Z,17.67
2018-10-03T04:09:32.806Z,18.57
2018-10-03T04:14:37.016Z,21.40
2018-10-03T04:19:41.031Z,22.53
2018-10-03T04:24:44.751Z,17.57
2018-10-03T04:29:48.883Z,19.60
2018-10-03T04:34:53.012Z,20.00
2018-10-03T04:39:56.609Z,16.13
2018-10-03T04:45:00.868Z,20.20
2018-10-03T04:50:04.620Z,16.00
2018-10-03T04:55:08.647Z,21.07
2018-10-03T05:00:12.590Z,17.80
2018-10-03T05:05:16.288Z,17.57
2018-10-03T05:10:20.276Z,18.33
2018-10-03T05:15:24.009Z,18.43
2018-10-03T05:20:27.725Z,21.03
2018-10-03T05:25:31.285Z,22.00
2018-10-03T05:30:35.213Z,16.03
2018-10-03T05:35:39.378Z,19.07
2018-10-03T05:40:43.036Z,16.87
2018-10-03T05:45:46.927Z,16.17
2018-10-03T05:50:51.002Z,16.20
2018-10-03T05:55:54.982Z,18.00
2018-10-03T06:00:59.063Z,15.37
2018-10-03T06:06:03.105Z,16.50
2018-10-03T06:11:06.876Z,14.63
2018-10-03T06:16:11.037Z,14.00
2018-10-03T06:21:15.219Z,16.37
2018-10-03T06:26:19.447Z,13.37
2018-10-03T06:31:36.175Z,14.60
2018-10-03T06:36:56.156Z,19.27
2018-10-03T06:42:06.326Z,19.00
2018-10-03T06:47:10.123Z,18.47
2018-10-03T06:52:13.766Z,15.50
2018-10-03T06:57:25.679Z,21.90
2018-10-03T07:02:29.824Z,20.37
2018-10-03T07:07:33.436Z,14.60
2018-10-03T07:12:37.921Z,20.83
2018-10-03T07:17:41.860Z,15.90
2018-10-03T07:22:46.080Z,13.13
2018-10-03T07:27:49.875Z,15.43
2018-10-03T07:32:53.546Z,18.80
2018-10-03T07:37:57.602Z,18.97
2018-10-03T07:43:01.569Z,15.57
2018-10-03T07:48:06.250Z,11.97
2018-10-03T07:53:10.151Z,15.93
2018-10-03T07:58:14.837Z,21.63
2018-10-03T08:03:19.270Z,20.27
2018-10-03T08:08:23.104Z,14.23
2018-10-03T08:13:27.434Z,18.57
2018-10-03T08:18:31.180Z,15.30
2018-10-03T08:23:35.367Z,11.13
2018-10-03T08:28:39.561Z,15.77
2018-10-03T08:33:43.713Z,15.00
2018-10-03T08:38:53.422Z,13.53
2018-10-03T08:43:57.736Z,13.37
2018-10-03T08:49:23.989Z,10.97
2018-10-03T08:54:28.944Z,12.63
2018-10-03T08:59:40.565Z,13.63
2018-10-03T09:04:44.855Z,12.27
2018-10-03T09:09:48.710Z,15.80
2018-10-03T09:14:52.539Z,15.10
2018-10-03T09:19:56.388Z,12.43
2018-10-03T09:25:00.203Z,11.33
2018-10-03T09:30:04.119Z,11.77
2018-10-03T09:35:08.561Z,17.33
2018-10-03T09:40:12.449Z,16.00
2018-10-03T09:45:16.521Z,17.63
2018-10-03T09:50:20.513Z,15.63
2018-10-03T09:55:24.389Z,13.53
2018-10-03T10:00:33.686Z,18.73
2018-10-03T10:05:37.464Z,13.73
2018-10-03T10:10:41.233Z,15.03
2018-10-03T10:15:44.856Z,13.17
2018-10-03T10:20:49.139Z,13.73
2018-10-03T10:25:52.927Z,15.67
2018-10-03T10:30:56.974Z,13.10
2018-10-03T10:36:00.711Z,12.63
2018-10-03T10:41:04.601Z,12.33
2018-10-03T10:46:08.768Z,12.47
2018-10-03T10:51:12.603Z,11.63
2018-10-03T10:56:16.636Z,12.20
2018-10-03T11:01:20.537Z,11.40
2018-10-03T11:06:24.553Z,11.40
2018-10-03T11:11:28.916Z,12.87
2018-10-03T11:16:32.640Z,11.50
2018-10-03T11:21:36.678Z,14.87
2018-10-03T11:26:40.476Z,10.17
2018-10-03T11:31:44.454Z,12.50
2018-10-03T11:36:49.031Z,11.00
2018-10-03T11:41:53.111Z,10.43
2018-10-03T11:46:56.690Z,14.03
2018-10-03T11:52:00.317Z,8.67
2018-10-03T11:57:04.179Z,13.80
2018-10-03T12:02:08.509Z,10.33
2018-10-03T12:07:12.280Z,12.07
2018-10-03T12:12:15.974Z,13.53
2018-10-03T12:17:25.131Z,9.47
2018-10-03T12:22:28.739Z,9.80
2018-10-03T12:27:32.516Z,10.60
2018-10-03T12:32:36.411Z,8.97
2018-10-03T12:37:53.739Z,9.10
2018-10-03T12:42:57.688Z,9.47
2018-10-03T12:48:01.471Z,12.17
2018-10-03T12:53:06.033Z,11.23
2018-10-03T12:58:09.958Z,12.53
2018-10-03T13:03:13.892Z,11.03
2018-10-03T13:08:17.596Z,14.13
2018-10-03T13:13:21.275Z,9.73
2018-10-03T13:18:30.861Z,12.33
2018-10-03T13:23:35.020Z,8.20
2018-10-03T13:28:38.633Z,11.07
2018-10-03T13:33:42.475Z,8.77
2018-10-03T13:38:50.054Z,10.97
2018-10-03T13:43:54.199Z,10.70
2018-10-03T13:48:58.477Z,11.60
2018-10-03T13:54:02.235Z,8.60
2018-10-03T13:59:05.936Z,11.10
2018-10-03T14:04:09.974Z,9.20
2018-10-03T14:09:13.910Z,8.67
2018-10-03T14:14:18.425Z,9.63
2018-10-03T14:19:22.500Z,8.20
2018-10-03T14:24:26.431Z,6.67
2018-10-03T14:29:30.411Z,8.90
2018-10-03T14:34:34.089Z,12.00
2018-10-03T14:39:37.965Z,11.13
2018-10-03T14:44:41.708Z,9.17
2018-10-03T14:49:46.323Z,10.83
2018-10-03T14:54:50.546Z,11.27
2018-10-03T14:59:54.274Z,9.63
2018-10-03T15:04:58.503Z,5.33
2018-10-03T15:10:02.769Z,7.97
2018-10-03T15:15:06.891Z,10.87
2018-10-03T15:20:29.697Z,11.70
2018-10-03T15:25:33.743Z,8.47
2018-10-03T15:30:37.500Z,12.10
2018-10-03T15:35:41.423Z,7.93
2018-10-03T15:40:45.497Z,10.83
2018-10-03T15:45:49.513Z,14.13
2018-10-03T15:50:53.196Z,9.47
2018-10-03T15:55:57.259Z,12.43
2018-10-03T16:01:01.833Z,9.47
2018-10-03T16:06:05.545Z,10.07
2018-10-03T16:11:09.862Z,9.47
2018-10-03T16:16:13.651Z,8.93
2018-10-03T16:21:17.620Z,8.03
2018-10-03T16:26:21.503Z,12.43
2018-10-03T16:31:25.126Z,10.53
2018-10-03T16:36:29.198Z,9.50
2018-10-03T16:41:33.277Z,12.47
2018-10-03T16:46:37.238Z,14.73
2018-10-03T16:51:41.169Z,11.50
2018-10-03T16:56:45.223Z,8.40
2018-10-03T17:01:49.124Z,10.00
2018-10-03T17:06:52.782Z,11.07
2018-10-03T17:11:56.407Z,11.97
2018-10-03T17:17:00.443Z,10.90
2018-10-03T17:22:04.652Z,10.80
2018-10-03T17:27:09.047Z,14.20
2018-10-03T17:32:13.339Z,10.73
2018-10-03T17:37:17.122Z,12.33
2018-10-03T17:42:21.060Z,10.17
2018-10-03T17:47:25.488Z,12.07
2018-10-03T17:52:29.182Z,11.77
2018-10-03T17:57:32.760Z,12.80
2018-10-03T18:02:36.731Z,8.73
2018-10-03T18:07:40.420Z,12.13
2018-10-03T18:12:44.494Z,15.03
2018-10-03T18:17:48.216Z,12.20
2018-10-03T18:22:52.209Z,10.07
2018-10-03T18:28:00.653Z,12.07
2018-10-03T18:33:04.872Z,9.40
2018-10-03T18:38:09.099Z,12.83
2018-10-03T18:43:13.743Z,10.70
2018-10-03T18:48:17.468Z,12.10
2018-10-03T18:53:21.427Z,11.20
2018-10-03T18:58:25.835Z,10.17
2018-10-03T19:03:30.405Z,12.33
2018-10-03T19:08:34.132Z,11.30
2018-10-03T19:13:37.873Z,8.77
2018-10-03T19:18:41.852Z,13.03
2018-10-03T19:23:45.850Z,10.97
2018-10-03T19:28:52.996Z,14.77
2018-10-03T19:33:56.577Z,11.17
2018-10-03T19:39:05.276Z,11.77
2018-10-03T19:44:08.889Z,12.20
2018-10-03T19:49:22.218Z,13.10
2018-10-03T19:54:25.855Z,18.07
2018-10-03T19:59:29.625Z,10.20
2018-10-03T20:04:33.422Z,10.07
2018-10-03T20:09:37.684Z,10.63
2018-10-03T20:14:41.853Z,13.07
2018-10-03T20:19:46.349Z,15.07
2018-10-03T20:24:50.096Z,10.87
2018-10-03T20:29:54.198Z,9.30
2018-10-03T20:34:58.152Z,12.67
2018-10-03T20:40:01.885Z,11.97
2018-10-03T20:45:05.970Z,10.90
2018-10-03T20:50:09.524Z,12.87
2018-10-03T20:55:13.196Z,12.93
2018-10-03T21:00:16.939Z,14.57
2018-10-03T21:05:20.720Z,14.03
2018-10-03T21:10:24.624Z,12.57
2018-10-03T21:15:28.311Z,11.03
2018-10-03T21:20:32.293Z,11.97
2018-10-03T21:25:36.435Z,12.60
2018-10-03T21:30:40.340Z,10.43
2018-10-03T21:35:44.592Z,13.83
2018-10-03T21:40:48.175Z,10.03
2018-10-03T21:45:52.004Z,13.73
2018-10-03T21:50:56.660Z,13.83
2018-10-03T21:56:00.949Z,11.50
2018-10-03T22:01:04.619Z,15.90
2018-10-03T22:06:08.443Z,13.80
2018-10-03T22:11:12.229Z,13.37
2018-10-03T22:16:15.955Z,11.47
2018-10-03T22:21:20.106Z,12.03
2018-10-03T22:26:23.879Z,18.77
2018-10-03T22:31:27.805Z,12.93
2018-10-03T22:36:31.930Z,14.47
2018-10-03T22:41:39.576Z,12.03
2018-10-03T22:46:43.391Z,10.73
2018-10-03T22:51:47.775Z,15.23
2018-10-03T22:56:51.511Z,14.80
2018-10-03T23:01:55.497Z,15.70
2018-10-03T23:06:59.424Z,15.00
2018-10-03T23:12:03.241Z,13.30
2018-10-03T23:17:07.444Z,10.30
2018-10-03T23:22:12.038Z,16.83
2018-10-03T23:27:16.144Z,13.73
2018-10-03T23:32:20.028Z,15.37
2018-10-03T23:37:24.691Z,9.53
2018-10-03T23:42:28.752Z,14.57
2018-10-03T23:47:32.600Z,10.33
2018-10-03T23:52:36.503Z,13.60
2018-10-03T23:57:40.420Z,13.63
